Time;durP1;ratioP1;P1;durP2;ratioP2;P2;SDS_P1;SDS_P2;PMS_P1;PMS_P2;Temp;Humidity;BMP_temperature;BMP_pressure;BME280_temperature;BME280_humidity;BME280_pressure;Samples;Min_cycle;Max_cycle;Signal;HPM_P1;HPM_P2
2022/01/10 00:00:06;;;;;;;55.97;32.38;;;;;;;7.98;78.37;98094.66;5012423;28;20022;-84
2022/01/10 00:02:32;;;;;;;66.70;36.28;;;;;;;8.67;77.68;98214.69;5011606;28;20029;-85
2022/01/10 00:04:57;;;;;;;59.97;31.67;;;;;;;7.22;78.30;98039.53;5011117;28;20022;-85
2022/01/10 00:07:23;;;;;;;59.38;33.33;;;;;;;8.51;78.51;98218.47;5011066;28;20112;-85
2022/01/10 00:09:48;;;;;;;56.65;34.05;;;;;;;7.42;78.23;98076.38;5011153;28;20052;-85
2022/01/10 00:12:14;;;;;;;55.67;32.70;;;;;;;8.47;78.62;98222.50;5014646;28;20036;-84
2022/01/10 00:14:39;;;;;;;55.55;31.33;;;;;;;8.34;78.97;98222.47;4997241;28;20034;-84
2022/01/10 00:17:05;;;;;;;58.33;31.90;;;;;;;7.94;78.77;98143.34;5014687;28;20092;-85
2022/01/10 00:19:30;;;;;;;50.72;30.23;;;;;;;8.09;78.75;98164.25;5014712;28;20042;-83
2022/01/10 00:21:56;;;;;;;47.47;26.98;;;;;;;7.41;78.53;98042.44;5027938;28;20044;-84
2022/01/10 00:24:22;;;;;;;52.28;29.02;;;;;;;8.06;78.59;98159.38;5040992;28;20022;-82
2022/01/10 00:26:47;;;;;;;47.88;25.15;;;;;;;7.76;78.25;98099.22;5034917;28;20026;-84
2022/01/10 00:29:13;;;;;;;53.92;29.48;;;;;;;8.20;78.65;98172.41;5014712;28;20092;-84
2022/01/10 00:31:38;;;;;;;48.05;27.65;;;;;;;6.96;78.09;97971.94;5014432;28;20018;-83
2022/01/10 00:34:04;;;;;;;45.83;26.02;;;;;;;8.15;78.04;98164.28;5015299;28;20060;-84
2022/01/10 00:36:29;;;;;;;46.50;26.77;;;;;;;8.06;77.98;98146.25;5015139;28;20024;-83
2022/01/10 00:38:55;;;;;;;50.35;27.42;;;;;;;7.98;78.25;98128.81;4996770;28;20018;-84
2022/01/10 00:41:20;;;;;;;45.58;25.63;;;;;;;8.29;78.53;98171.25;5014490;28;20025;-83
2022/01/10 00:43:46;;;;;;;53.47;27.30;;;;;;;7.85;78.35;98087.53;5014596;28;20022;-83
2022/01/10 00:46:12;;;;;;;49.75;26.90;;;;;;;8.56;78.47;98195.84;5014427;28;20026;-81
2022/01/10 00:48:38;;;;;;;55.47;29.50;;;;;;;7.77;78.05;98068.50;5014350;28;20483;-83
2022/01/10 00:51:03;;;;;;;42.35;25.90;;;;;;;7.80;78.14;98079.44;5014115;28;20041;-83
2022/01/10 00:53:29;;;;;;;54.58;29.30;;;;;;;7.59;77.93;98046.19;5013889;28;20022;-84
2022/01/10 00:55:54;;;;;;;45.45;26.08;;;;;;;8.39;77.99;98177.97;5013897;28;20081;-84
2022/01/10 00:58:20;;;;;;;42.35;25.63;;;;;;;8.55;78.16;98207.38;5013739;28;20022;-83
2022/01/10 01:00:45;;;;;;;46.40;27.98;;;;;;;8.55;78.38;98206.56;4995968;28;20105;-83
2022/01/10 01:03:11;;;;;;;46.45;26.15;;;;;;;8.15;77.92;98135.34;5013861;28;20026;-84
2022/01/10 01:05:42;;;;;;;45.10;26.10;;;;;;;7.40;78.00;98014.56;4996039;28;20076;-83
2022/01/10 01:08:09;;;;;;;43.95;27.17;;;;;;;7.81;77.91;98075.78;4995910;28;20482;-83
2022/01/10 01:24:06;;;;;;;57.75;30.35;;;;;;;7.92;78.21;98062.09;5013248;28;20060;-82
2022/01/10 01:26:43;;;;;;;48.10;28.02;;;;;;;8.74;77.73;98184.75;5013430;28;20054;-83
2022/01/10 01:29:11;;;;;;;65.03;32.97;;;;;;;8.78;77.70;98190.41;5014117;28;20517;-83
2022/01/10 01:31:38;;;;;;;53.45;27.63;;;;;;;8.57;77.88;98159.81;4996606;28;20017;-84
2022/01/10 01:34:03;;;;;;;46.58;26.25;;;;;;;8.73;78.17;98188.38;4996601;28;20030;-83
2022/01/10 01:36:31;;;;;;;53.33;30.92;;;;;;;7.81;78.11;98043.47;5013485;28;20037;-83
2022/01/10 01:38:57;;;;;;;55.10;31.17;;;;;;;8.73;77.69;98177.84;5013382;28;20109;-83
2022/01/10 01:43:50;;;;;;;53.10;30.92;;;;;;;8.46;77.51;98124.38;5013093;28;20029;-82
2022/01/10 01:46:16;;;;;;;52.22;31.55;;;;;;;7.69;78.11;98010.88;5013056;28;20101;-83
2022/01/10 01:48:42;;;;;;;53.55;32.67;;;;;;;8.58;77.97;98141.19;5012874;28;20034;-83
2022/01/10 01:51:08;;;;;;;61.10;34.50;;;;;;;8.75;78.18;98167.13;5012841;28;20033;-83
2022/01/10 01:53:36;;;;;;;60.75;32.72;;;;;;;7.97;77.69;98043.09;5012946;28;20025;-83
2022/01/10 01:56:04;;;;;;;61.15;30.35;;;;;;;8.56;78.01;98134.53;5012777;28;20014;-83
2022/01/10 01:58:29;;;;;;;57.08;32.40;;;;;;;7.52;77.88;97971.03;5012820;28;20026;-83
2022/01/10 02:00:55;;;;;;;56.58;29.65;;;;;;;7.94;77.92;98031.16;5012538;28;20544;-83
2022/01/10 02:03:20;;;;;;;55.47;31.30;;;;;;;8.69;78.24;98152.16;5012791;28;20032;-83
2022/01/10 02:05:46;;;;;;;55.03;30.90;;;;;;;8.69;78.43;98157.41;4995837;28;20413;-83
2022/01/10 02:08:12;;;;;;;61.75;30.80;;;;;;;7.55;77.83;98008.19;5013969;28;20094;-83
2022/01/10 02:10:38;;;;;;;62.60;31.73;;;;;;;7.69;78.29;97995.94;5013227;28;20093;-83
2022/01/10 02:13:04;;;;;;;57.47;31.73;;;;;;;7.97;77.91;98067.56;5012673;28;20540;-83
2022/01/10 02:18:17;;;;;;;57.70;29.83;;;;;;;7.72;78.04;97992.91;5012473;28;20022;-83
2022/01/10 02:20:45;;;;;;;66.75;30.73;;;;;;;8.69;78.11;98142.44;5012486;28;20049;-84
2022/01/10 02:23:11;;;;;;;57.85;30.17;;;;;;;8.63;78.08;98132.72;5012540;28;20053;-83
2022/01/10 02:25:36;;;;;;;62.28;30.65;;;;;;;8.20;78.13;98062.00;4994635;28;20083;-83
2022/01/10 02:28:03;;;;;;;70.38;31.95;;;;;;;7.45;78.26;97943.94;4994510;28;20026;-83
2022/01/10 02:30:28;;;;;;;66.45;31.85;;;;;;;8.67;78.59;98154.16;5012162;28;20105;-84
2022/01/10 02:32:57;;;;;;;64.03;33.42;;;;;;;8.52;78.57;98104.34;4994536;28;20030;-83
2022/01/10 02:35:26;;;;;;;58.50;29.55;;;;;;;8.68;78.45;98143.44;5012339;28;20057;-83
2022/01/10 02:37:53;;;;;;;57.67;31.23;;;;;;;8.39;78.43;98093.81;5012033;28;20033;-83
2022/01/10 02:40:21;;;;;;;67.72;34.17;;;;;;;8.72;78.48;98146.47;5011895;28;20091;-83
2022/01/10 02:42:47;;;;;;;60.85;32.60;;;;;;;8.73;78.59;98137.56;5011783;28;20036;-83
2022/01/10 02:45:13;;;;;;;67.75;32.92;;;;;;;7.42;78.79;97931.16;5011986;28;20032;-84
2022/01/10 02:47:39;;;;;;;72.47;34.30;;;;;;;7.49;78.61;97929.41;4994102;28;20033;-83
2022/01/10 02:50:05;;;;;;;50.97;28.45;;;;;;;8.72;78.80;98134.13;4994152;28;20029;-84
2022/01/10 02:52:31;;;;;;;77.00;34.50;;;;;;;8.09;78.75;98027.56;5011719;28;20022;-84
2022/01/10 02:55:00;;;;;;;62.50;31.13;;;;;;;8.75;78.74;98127.66;5011802;28;20037;-84
2022/01/10 02:57:28;;;;;;;66.53;34.55;;;;;;;8.75;78.73;98146.91;5011554;28;20049;-84
2022/01/10 02:59:54;;;;;;;73.43;34.67;;;;;;;7.74;78.49;97969.06;4993954;28;20049;-83
2022/01/10 03:02:22;;;;;;;75.25;34.47;;;;;;;8.76;78.35;98129.28;5012299;28;20049;-84
2022/01/10 03:04:47;;;;;;;72.28;35.58;;;;;;;8.30;78.29;98074.75;5013183;28;20018;-83
2022/01/10 03:07:17;;;;;;;67.15;33.05;;;;;;;8.77;78.63;98158.03;5012821;28;20030;-84
2022/01/10 03:09:42;;;;;;;65.68;32.95;;;;;;;8.66;78.47;98120.97;5011660;28;20120;-83
2022/01/10 03:12:09;;;;;;;64.63;33.30;;;;;;;8.14;78.65;98046.16;4994154;28;20042;-84
2022/01/10 03:14:36;;;;;;;66.68;31.67;;;;;;;7.86;78.64;97996.38;5011669;28;20057;-84
2022/01/10 03:17:01;;;;;;;55.78;30.40;;;;;;;8.07;78.24;98040.91;5011647;28;20030;-84
2022/01/10 03:19:27;;;;;;;58.95;31.27;;;;;;;8.76;78.31;98135.34;5011879;28;20113;-83
2022/01/10 03:21:52;;;;;;;71.10;33.13;;;;;;;8.77;78.46;98163.28;5011802;28;20037;-83
2022/01/10 03:24:19;;;;;;;65.45;35.83;;;;;;;7.58;78.36;97970.22;5011653;28;20033;-84
2022/01/10 03:26:44;;;;;;;68.38;34.85;;;;;;;8.46;78.42;98105.97;4994081;28;20022;-84
2022/01/10 03:29:10;;;;;;;64.63;36.55;;;;;;;8.55;78.46;98120.56;4993967;28;20049;-84
2022/01/10 03:31:36;;;;;;;66.72;33.70;;;;;;;8.76;78.63;98161.66;5011661;28;20055;-84
2022/01/10 03:34:02;;;;;;;73.22;35.22;;;;;;;8.76;78.37;98148.50;5011225;28;20032;-82
2022/01/10 03:36:27;;;;;;;83.50;40.33;;;;;;;7.92;78.64;98029.75;5011303;28;20026;-83
2022/01/10 03:38:53;;;;;;;77.57;35.92;;;;;;;7.52;78.53;97973.66;5011957;28;20026;-84
2022/01/10 03:41:18;;;;;;;76.47;37.90;;;;;;;7.51;78.71;97980.72;5012426;28;20117;-84
2022/01/10 03:43:44;;;;;;;68.03;35.30;;;;;;;7.45;78.28;97963.13;5011537;28;20044;-84
2022/01/10 03:46:09;;;;;;;87.32;40.85;;;;;;;8.09;78.22;98067.00;5013516;28;20510;-84
2022/01/10 03:48:35;;;;;;;77.35;36.88;;;;;;;8.73;78.59;98156.00;4997588;28;20413;-84
2022/01/10 03:51:00;;;;;;;72.57;37.88;;;;;;;7.71;78.76;98007.03;5015438;28;20026;-84
2022/01/10 03:53:26;;;;;;;92.82;38.83;;;;;;;7.90;78.47;98044.91;5015000;28;20026;-84
2022/01/10 03:55:51;;;;;;;87.47;39.95;;;;;;;8.76;78.59;98160.84;5015184;28;20517;-83
2022/01/10 03:58:17;;;;;;;85.50;39.53;;;;;;;8.76;78.65;98164.31;5014843;28;20474;-84
2022/01/10 04:00:42;;;;;;;76.72;36.97;;;;;;;8.12;78.68;98051.63;4997143;28;20087;-83
2022/01/10 04:03:08;;;;;;;109.25;43.00;;;;;;;8.76;78.64;98158.22;5015011;28;20096;-84
2022/01/10 04:05:34;;;;;;;78.15;37.40;;;;;;;8.74;78.45;98190.00;5014900;28;20137;-84
2022/01/10 04:08:00;;;;;;;79.18;36.47;;;;;;;8.67;78.52;98141.00;5014718;28;20065;-84
2022/01/10 04:10:26;;;;;;;69.63;33.10;;;;;;;8.18;78.51;98077.16;4997037;28;20096;-84
2022/01/10 04:12:51;;;;;;;76.60;33.30;;;;;;;8.74;78.43;98162.88;5014586;28;20025;-83
2022/01/10 04:15:17;;;;;;;69.82;36.47;;;;;;;7.50;78.27;97973.03;5014573;28;20026;-83
2022/01/10 04:17:43;;;;;;;69.65;33.25;;;;;;;7.70;78.68;98004.63;5014726;28;20025;-83
2022/01/10 04:20:09;;;;;;;72.82;34.67;;;;;;;7.22;78.44;97933.72;5014715;28;20025;-84
2022/01/10 04:22:35;;;;;;;81.40;37.05;;;;;;;8.76;78.32;98206.41;4997148;28;20033;-83
2022/01/10 04:25:00;;;;;;;95.78;40.55;;;;;;;8.39;78.92;98110.41;5014511;28;20026;-86
2022/01/10 04:27:26;;;;;;;82.90;37.25;;;;;;;7.95;79.04;98056.44;5014894;28;20026;-86
2022/01/10 04:29:52;;;;;;;87.05;39.53;;;;;;;8.06;78.93;98080.53;5041679;28;20026;-83
2022/01/10 04:32:17;;;;;;;89.25;40.95;;;;;;;7.69;78.70;98039.78;5041553;28;20058;-86
2022/01/10 04:34:44;;;;;;;97.82;42.08;;;;;;;8.53;78.75;98161.22;5029787;28;20034;-86
2022/01/10 04:37:09;;;;;;;90.95;40.17;;;;;;;8.26;78.74;98118.22;5014837;28;20431;-86
2022/01/10 04:39:35;;;;;;;105.53;44.42;;;;;;;7.78;79.11;98051.72;5014278;28;20038;-86
2022/01/10 04:42:01;;;;;;;95.13;42.35;;;;;;;7.95;78.75;98066.94;5014190;28;20033;-86
2022/01/10 04:44:26;;;;;;;109.57;44.17;;;;;;;8.60;78.87;98169.94;4996795;28;20120;-86
2022/01/10 04:46:52;;;;;;;121.65;45.78;;;;;;;7.64;78.60;98014.91;5014277;28;20033;-86
2022/01/10 04:49:24;;;;;;;112.32;47.05;;;;;;;8.44;79.09;98144.81;5014185;28;20029;-86
2022/01/10 04:51:49;;;;;;;;;;;;;;;8.64;79.41;98202.72;4996943;28;20021;-86
2022/01/10 04:54:16;;;;;;;112.18;46.72;;;;;;;8.08;78.84;98105.59;5014202;28;19910;-86
2022/01/10 04:56:43;;;;;;;117.18;51.17;;;;;;;8.63;78.77;98179.25;5014200;28;20530;-87
2022/01/10 04:59:08;;;;;;;118.43;48.88;;;;;;;8.48;79.14;98143.41;5014797;28;20029;-87
2022/01/10 05:01:34;;;;;;;94.72;44.50;;;;;;;7.48;78.60;98001.31;5014565;28;20033;-87
2022/01/10 05:03:59;;;;;;;104.82;44.05;;;;;;;8.46;78.91;98128.81;5019651;28;20127;-85
2022/01/10 05:06:25;;;;;;;86.50;40.15;;;;;;;8.24;78.53;98091.31;5040806;28;20025;-84
2022/01/10 05:08:50;;;;;;;87.30;40.40;;;;;;;8.88;78.77;98204.00;5040472;28;20046;-84
2022/01/10 05:11:17;;;;;;;88.00;42.38;;;;;;;8.17;78.90;98074.69;5014721;28;20037;-86
2022/01/10 05:13:42;;;;;;;71.90;39.60;;;;;;;8.10;78.69;98055.47;5013912;28;20014;-86
2022/01/10 05:16:08;;;;;;;65.20;34.28;;;;;;;8.18;78.89;98071.91;5014220;28;20036;-86
2022/01/10 05:18:33;;;;;;;67.05;35.88;;;;;;;8.94;79.16;98174.28;5014532;28;20032;-85
2022/01/10 05:20:59;;;;;;;67.65;36.42;;;;;;;8.90;79.00;98165.94;5013762;28;20021;-86
2022/01/10 05:23:24;;;;;;;63.10;35.13;;;;;;;8.28;79.13;98101.25;4995940;28;20029;-83
2022/01/10 05:25:49;;;;;;;59.75;34.60;;;;;;;8.82;78.83;98160.88;5013359;28;20464;-83
2022/01/10 05:28:17;;;;;;;58.08;34.25;;;;;;;8.05;78.74;98028.97;5013276;28;20417;-82
2022/01/10 05:30:42;;;;;;;65.40;35.53;;;;;;;9.05;79.03;98199.19;5013317;28;20032;-83
2022/01/10 05:33:09;;;;;;;61.28;35.45;;;;;;;9.07;79.08;98211.16;5013229;28;20037;-82
2022/01/10 05:35:36;;;;;;;61.47;34.30;;;;;;;9.10;78.75;98196.78;5013051;28;20479;-83
2022/01/10 05:38:02;;;;;;;58.72;33.22;;;;;;;9.00;78.80;98191.09;5013086;28;20402;-82
2022/01/10 05:40:27;;;;;;;61.05;34.40;;;;;;;8.15;78.63;98055.69;4995489;28;20022;-83
2022/01/10 05:42:53;;;;;;;53.38;33.38;;;;;;;7.95;78.69;98032.78;5013208;28;20038;-82
2022/01/10 05:45:18;;;;;;;53.90;31.33;;;;;;;8.91;78.95;98175.47;4995420;28;20037;-82
2022/01/10 05:47:46;;;;;;;55.85;31.65;;;;;;;8.15;78.77;98056.50;5013065;28;20048;-83
2022/01/10 05:50:16;;;;;;;46.53;29.70;;;;;;;8.73;78.91;98156.81;5012815;28;20056;-81
2022/01/10 05:52:42;;;;;;;55.05;31.30;;;;;;;8.44;79.03;98117.69;4995201;28;20030;-83
2022/01/10 05:55:08;;;;;;;56.63;33.00;;;;;;;9.17;78.88;98208.13;5013330;28;20053;-82
2022/01/10 05:57:34;;;;;;;50.47;29.65;;;;;;;8.58;78.55;98129.88;5012940;28;20077;-83
2022/01/10 05:59:59;;;;;;;53.83;31.35;;;;;;;9.22;78.63;98227.56;5012599;28;20112;-83
2022/01/10 06:02:24;;;;;;;40.67;26.77;;;;;;;9.03;78.56;98185.41;5012859;28;20157;-83
2022/01/10 06:04:50;;;;;;;46.33;26.10;;;;;;;8.50;78.48;98094.03;4995200;28;20471;-83
2022/01/10 06:07:15;;;;;;;49.88;28.13;;;;;;;9.02;78.36;98174.06;5013019;28;20044;-83
2022/01/10 06:09:41;;;;;;;47.55;28.85;;;;;;;9.31;78.41;98224.72;5011930;28;20053;-83
2022/01/10 06:12:07;;;;;;;52.83;29.40;;;;;;;9.13;78.66;98210.34;5012428;28;20026;-83
2022/01/10 06:14:32;;;;;;;41.72;26.83;;;;;;;8.26;78.40;98070.91;5012466;28;20479;-83
2022/01/10 06:16:58;;;;;;;52.63;29.48;;;;;;;7.49;78.33;97953.84;5012258;28;20022;-83
2022/01/10 06:19:23;;;;;;;41.20;27.10;;;;;;;8.99;78.63;98181.56;5012530;28;20058;-83
2022/01/10 06:21:49;;;;;;;50.47;28.83;;;;;;;8.00;78.05;98040.06;5012182;28;20030;-83
2022/01/10 06:24:14;;;;;;;45.35;26.00;;;;;;;8.61;78.16;98121.56;5012926;28;20084;-82
2022/01/10 06:26:40;;;;;;;51.80;29.42;;;;;;;9.38;77.95;98255.34;5012840;28;20499;-83
2022/01/10 06:29:05;;;;;;;45.22;28.15;;;;;;;9.28;78.03;98220.69;5012564;28;20029;-83
2022/01/10 06:31:30;;;;;;;45.42;28.27;;;;;;;9.38;77.98;98244.78;5012671;28;20022;-83
2022/01/10 06:33:56;;;;;;;50.60;31.40;;;;;;;9.23;78.02;98208.13;5012474;28;20052;-83
2022/01/10 06:36:22;;;;;;;44.80;27.95;;;;;;;8.59;77.88;98106.00;4994808;28;20041;-83
2022/01/10 06:38:47;;;;;;;44.47;26.75;;;;;;;9.46;77.94;98241.16;5012443;28;20033;-82
2022/01/10 06:41:12;;;;;;;50.72;29.23;;;;;;;8.28;78.00;98053.09;5012414;28;20057;-83
2022/01/10 06:43:39;;;;;;;56.80;31.20;;;;;;;8.49;77.82;98095.03;5012826;28;20037;-83
2022/01/10 06:46:05;;;;;;;54.30;32.53;;;;;;;9.24;77.48;98208.94;4994165;28;20034;-83
2022/01/10 06:48:31;;;;;;;47.45;29.58;;;;;;;9.47;77.67;98242.78;5017577;28;20033;-83
2022/01/10 06:50:56;;;;;;;50.22;30.27;;;;;;;9.47;77.80;98240.94;5009257;28;20423;-83
2022/01/10 06:53:22;;;;;;;47.95;28.20;;;;;;;9.48;77.92;98242.56;5009999;28;20030;-82
2022/01/10 06:55:48;;;;;;;45.15;27.60;;;;;;;8.77;77.53;98128.28;5010347;28;20495;-83
2022/01/10 06:58:13;;;;;;;54.13;30.27;;;;;;;8.53;77.69;98087.56;4994033;28;20483;-83
2022/01/10 07:00:40;;;;;;;52.17;31.50;;;;;;;9.47;77.51;98237.50;4994807;28;20028;-82
2022/01/10 07:03:05;;;;;;;55.20;34.10;;;;;;;9.35;77.85;98223.31;5010791;28;20109;-82
2022/01/10 07:05:31;;;;;;;51.88;32.00;;;;;;;8.78;77.79;98141.22;5010978;28;20018;-83
2022/01/10 07:07:57;;;;;;;53.83;31.73;;;;;;;8.36;77.63;98088.97;5011822;28;20069;-83
2022/01/10 07:10:22;;;;;;;53.72;31.45;;;;;;;9.41;77.96;98264.66;5012700;28;20026;-84
2022/01/10 07:12:48;;;;;;;52.05;31.67;;;;;;;8.95;78.28;98199.59;5014655;28;20033;-83
2022/01/10 07:15:14;;;;;;;48.53;29.83;;;;;;;8.60;77.75;98144.44;5011994;28;20426;-83
2022/01/10 07:17:40;;;;;;;57.10;32.63;;;;;;;9.41;77.90;98268.09;4993803;28;20072;-84
2022/01/10 07:20:06;;;;;;;57.25;32.28;;;;;;;8.63;77.54;98158.22;5010887;28;20057;-84
2022/01/10 07:22:31;;;;;;;52.08;32.47;;;;;;;8.13;77.81;98074.28;5008610;28;20487;-83
2022/01/10 07:24:57;;;;;;;52.40;35.08;;;;;;;8.94;78.04;98205.88;5009842;28;20478;-84
2022/01/10 07:27:23;;;;;;;60.47;36.30;;;;;;;8.52;78.05;98134.09;5008634;28;20025;-83
2022/01/10 07:29:50;;;;;;;56.15;35.83;;;;;;;8.32;77.96;98111.38;5008723;28;20060;-83
2022/01/10 07:32:16;;;;;;;57.15;36.78;;;;;;;9.22;77.94;98250.47;5008017;28;20175;-83
2022/01/10 07:34:42;;;;;;;55.67;34.20;;;;;;;8.06;77.69;98083.97;5010217;28;20037;-83
2022/01/10 07:37:07;;;;;;;53.75;34.50;;;;;;;8.13;77.60;98126.84;5003933;28;20431;-83
2022/01/10 07:39:33;;;;;;;54.78;35.45;;;;;;;8.99;77.65;98231.59;5005332;28;20061;-82
2022/01/10 07:41:59;;;;;;;58.10;36.47;;;;;;;8.81;77.93;98235.56;5000310;28;20399;-83
2022/01/10 07:44:24;;;;;;;64.97;40.40;;;;;;;8.34;77.94;98167.22;5004680;28;20046;-83
2022/01/10 07:46:49;;;;;;;58.85;37.00;;;;;;;8.57;77.89;98178.22;5010790;28;20041;-83
2022/01/10 07:49:15;;;;;;;58.83;36.58;;;;;;;9.31;77.62;98316.91;5002292;28;20034;-82
2022/01/10 07:51:40;;;;;;;56.28;35.25;;;;;;;8.65;77.41;98200.91;5007541;28;20036;-83
2022/01/10 07:54:06;;;;;;;59.42;37.42;;;;;;;8.51;77.36;98179.03;5008061;28;20036;-83
2022/01/10 07:56:31;;;;;;;55.90;36.53;;;;;;;8.43;77.87;98169.50;5008702;28;20032;-83
2022/01/10 07:58:57;;;;;;;65.90;37.55;;;;;;;8.90;77.77;98244.91;5007359;28;20026;-83
2022/01/10 08:01:22;;;;;;;61.38;38.03;;;;;;;8.71;77.77;98208.00;4990824;28;20021;-83
2022/01/10 08:03:52;;;;;;;55.35;33.70;;;;;;;8.25;77.65;98150.78;4987902;28;20128;-83
2022/01/10 08:06:19;;;;;;;56.92;35.53;;;;;;;8.90;77.77;98239.63;4992265;28;20426;-88
2022/01/10 08:08:44;;;;;;;57.47;35.85;;;;;;;9.29;77.92;98297.88;5006087;28;20573;-86
2022/01/10 08:11:10;;;;;;;57.65;35.42;;;;;;;8.98;77.39;98238.69;4992345;28;20022;-88
2022/01/10 08:13:36;;;;;;;58.78;38.50;;;;;;;9.06;77.40;98258.75;5005449;28;20030;-85
2022/01/10 08:16:02;;;;;;;58.53;39.17;;;;;;;9.31;77.13;98327.47;5012952;28;20137;-89
2022/01/10 08:18:30;;;;;;;63.63;39.05;;;;;;;8.86;77.34;98251.56;5004652;28;20038;-90
2022/01/10 08:20:56;;;;;;;60.95;39.30;;;;;;;8.75;77.09;98210.06;5008347;28;20479;-87
2022/01/10 08:23:21;;;;;;;59.65;37.55;;;;;;;8.58;77.48;98206.97;4999965;28;20036;-88
2022/01/10 08:25:47;;;;;;;59.28;37.15;;;;;;;8.58;77.30;98225.38;5002329;28;20088;-91
2022/01/10 08:28:13;;;;;;;63.40;39.72;;;;;;;9.31;77.02;98306.38;4992706;28;20408;-88
2022/01/10 08:30:38;;;;;;;56.65;36.92;;;;;;;7.76;77.12;98072.13;5006730;28;20024;-85
2022/01/10 08:33:04;;;;;;;55.40;34.38;;;;;;;8.21;77.39;98139.84;4995646;28;20089;-87
2022/01/10 08:35:30;;;;;;;49.22;31.80;;;;;;;8.41;77.65;98173.31;5007598;28;20185;-87
2022/01/10 08:37:56;;;;;;;52.97;33.47;;;;;;;8.28;77.59;98160.91;5012078;28;20554;-88
2022/01/10 08:40:21;;;;;;;50.75;33.20;;;;;;;9.17;77.84;98308.19;5010243;28;20407;-87
2022/01/10 08:42:47;;;;;;;46.50;28.83;;;;;;;8.65;77.88;98199.09;5012400;28;20036;-88
2022/01/10 08:45:12;;;;;;;39.10;25.08;;;;;;;9.31;77.75;98346.72;5012247;28;20037;-87
2022/01/10 08:47:38;;;;;;;36.38;24.08;;;;;;;9.33;77.58;98323.63;5013484;28;20038;-87
2022/01/10 08:50:06;;;;;;;36.65;23.10;;;;;;;9.35;77.56;98308.41;5010486;28;20018;-87
2022/01/10 08:52:32;;;;;;;39.10;25.30;;;;;;;8.66;77.57;98200.72;4992844;28;20034;-88
2022/01/10 08:54:57;;;;;;;36.97;23.45;;;;;;;8.43;77.48;98163.41;5008221;28;20099;-85
2022/01/10 08:57:24;;;;;;;38.08;24.33;;;;;;;8.33;77.32;98142.75;5006234;28;20556;-87
2022/01/10 08:59:49;;;;;;;34.60;21.17;;;;;;;8.08;77.91;98110.88;5007376;28;20784;-86
2022/01/10 09:02:15;;;;;;;31.83;21.25;;;;;;;8.81;78.22;98246.09;4991610;28;20038;-86
2022/01/10 09:04:41;;;;;;;37.05;23.70;;;;;;;9.34;78.04;98309.44;5003565;28;20021;-86
2022/01/10 09:07:08;;;;;;;34.40;22.90;;;;;;;9.32;78.00;98305.38;5007672;28;20038;-87
2022/01/10 09:09:35;;;;;;;35.35;22.25;;;;;;;9.38;77.78;98296.66;5011232;28;20052;-87
2022/01/10 09:12:00;;;;;;;28.35;19.35;;;;;;;9.39;77.85;98299.09;4995347;28;20087;-87
2022/01/10 09:14:26;;;;;;;27.85;19.08;;;;;;;9.38;77.74;98294.03;5010411;28;20108;-87
2022/01/10 09:16:51;;;;;;;26.95;18.73;;;;;;;9.27;77.73;98279.63;5011222;28;20469;-87
2022/01/10 09:19:17;;;;;;;31.02;21.65;;;;;;;9.40;77.72;98287.56;5010251;28;20030;-86
2022/01/10 09:21:42;;;;;;;34.38;24.92;;;;;;;9.37;77.38;98280.06;4986976;28;20056;-86
2022/01/10 09:24:08;;;;;;;31.55;22.52;;;;;;;9.39;77.58;98269.31;5003702;28;20118;-84
2022/01/10 09:26:33;;;;;;;33.35;23.95;;;;;;;8.59;77.69;98140.19;4991114;28;20410;-84
2022/01/10 09:28:59;;;;;;;36.97;26.98;;;;;;;8.11;77.51;98059.72;5004284;28;20025;-84
2022/01/10 09:31:26;;;;;;;28.77;22.98;;;;;;;9.49;77.70;98278.44;4998693;28;20030;-84
2022/01/10 09:33:54;;;;;;;40.40;30.27;;;;;;;8.68;77.77;98145.25;5028059;28;20061;-85
2022/01/10 09:36:26;;;;;;;39.42;29.13;;;;;;;9.52;77.30;98277.22;5028705;28;20097;-84
2022/01/10 09:38:52;;;;;;;45.92;33.97;;;;;;;8.91;77.57;98179.91;5011481;28;20068;-85
2022/01/10 09:41:18;;;;;;;39.65;29.70;;;;;;;9.18;77.74;98223.72;5005339;28;20049;-84
2022/01/10 09:43:59;;;;;;;30.90;23.00;;;;;;;9.52;77.66;98275.41;4999115;28;20113;-84
2022/01/10 09:46:26;;;;;;;29.52;22.58;;;;;;;7.92;77.91;98027.13;5007160;28;20054;-85
2022/01/10 09:48:52;;;;;;;32.22;23.42;;;;;;;8.86;77.73;98166.53;5012516;28;20053;-84
2022/01/10 09:51:19;;;;;;;26.08;19.48;;;;;;;8.44;77.97;98120.34;5007316;28;20105;-85
2022/01/10 09:53:45;;;;;;;26.25;20.27;;;;;;;8.53;77.95;98108.59;5009722;28;20069;-85
2022/01/10 09:56:10;;;;;;;26.90;19.88;;;;;;;9.02;77.83;98199.59;4994726;28;20038;-84
2022/01/10 09:58:36;;;;;;;27.55;20.27;;;;;;;8.78;78.26;98154.38;4995645;28;20022;-85
2022/01/10 10:01:03;;;;;;;28.52;19.88;;;;;;;9.50;77.78;98261.63;5007860;28;20054;-84
2022/01/10 10:03:29;;;;;;;24.30;18.50;;;;;;;9.52;78.13;98266.69;5010675;28;20042;-85
2022/01/10 10:05:55;;;;;;;21.65;16.80;;;;;;;9.09;77.96;98195.97;4993330;28;20103;-85
2022/01/10 10:08:22;;;;;;;22.00;15.20;;;;;;;9.55;77.86;98271.56;5010974;28;20049;-85
2022/01/10 10:10:48;;;;;;;25.25;17.90;;;;;;;9.44;77.65;98244.00;5012944;28;20419;-84
2022/01/10 10:13:15;;;;;;;28.30;19.98;;;;;;;9.56;77.74;98295.06;5011988;28;20026;-86
2022/01/10 10:15:44;;;;;;;23.63;16.92;;;;;;;9.54;77.90;98262.84;4995414;28;20053;-85
2022/01/10 10:18:11;;;;;;;21.42;14.60;;;;;;;9.00;78.27;98178.75;4996949;28;20089;-84
2022/01/10 10:20:38;;;;;;;19.45;14.23;;;;;;;9.38;78.05;98236.91;4996886;28;20032;-84
2022/01/10 10:23:05;;;;;;;20.20;14.73;;;;;;;9.49;77.87;98252.09;5014341;28;20044;-87
2022/01/10 10:25:33;;;;;;;20.10;14.23;;;;;;;8.33;77.70;98063.88;5010564;28;20557;-88
2022/01/10 10:27:58;;;;;;;17.27;12.70;;;;;;;8.89;77.64;98166.94;5010213;28;20033;-88
2022/01/10 10:30:28;;;;;;;20.05;13.63;;;;;;;8.62;77.80;98125.81;5007597;28;20037;-88
2022/01/10 10:33:13;;;;;;;17.95;13.45;;;;;;;9.53;78.00;98268.31;5001958;28;20021;-88
2022/01/10 10:35:39;;;;;;;20.35;14.43;;;;;;;8.01;77.71;98027.75;5001225;28;20092;-87
2022/01/10 10:38:05;;;;;;;20.40;14.35;;;;;;;8.82;78.46;98155.59;5005580;28;20517;-88
2022/01/10 10:40:30;;;;;;;19.65;15.13;;;;;;;9.24;77.89;98243.97;4989694;28;20025;-87
2022/01/10 10:42:59;;;;;;;17.92;13.23;;;;;;;7.97;77.74;98015.00;5005257;28;20029;-86
2022/01/10 10:45:25;;;;;;;21.67;15.07;;;;;;;9.54;77.75;98262.03;5005053;28;20029;-87
2022/01/10 10:47:51;;;;;;;19.80;13.02;;;;;;;8.38;78.08;98081.69;4982500;28;20419;-81
2022/01/10 10:50:17;;;;;;;19.40;15.00;;;;;;;9.54;77.86;98270.75;4999481;28;20030;-84
2022/01/10 10:52:43;;;;;;;18.95;13.27;;;;;;;7.91;78.18;98013.16;4999346;28;20041;-85
2022/01/10 10:55:13;;;;;;;16.25;12.88;;;;;;;8.24;78.21;98065.84;4989147;28;20022;-85
2022/01/10 10:57:40;;;;;;;16.23;12.05;;;;;;;8.18;77.90;98064.00;5004041;28;20038;-86
2022/01/10 11:00:08;;;;;;;17.08;12.90;;;;;;;8.26;78.05;98069.09;5002150;28;20026;-85
2022/01/10 11:02:34;;;;;;;20.55;14.35;;;;;;;8.63;78.33;98134.53;4983425;28;20522;-84
2022/01/10 11:05:03;;;;;;;19.73;16.13;;;;;;;8.44;78.26;98101.91;5002245;28;20029;-85
2022/01/10 11:07:32;;;;;;;22.13;17.63;;;;;;;9.16;78.29;98212.56;4983605;28;20032;-85
2022/01/10 11:09:58;;;;;;;21.40;17.40;;;;;;;9.48;78.44;98274.19;5001233;28;20048;-85
2022/01/10 11:12:24;;;;;;;18.55;14.20;;;;;;;8.51;78.29;98116.69;5005976;28;20042;-83
2022/01/10 11:14:52;;;;;;;21.30;14.57;;;;;;;8.49;78.17;98105.56;5009286;28;20030;-86
2022/01/10 11:17:22;;;;;;;21.65;16.45;;;;;;;8.69;78.27;98145.06;4988969;28;20026;-85
2022/01/10 11:20:13;;;;;;;22.13;16.48;;;;;;;9.52;78.56;98275.41;5005663;28;20038;-85
2022/01/10 11:22:47;;;;;;;25.02;17.85;;;;;;;9.18;78.53;98233.44;5001804;28;20537;-84
2022/01/10 11:25:20;;;;;;;17.83;13.25;;;;;;;9.52;78.53;98279.84;4992978;28;20025;-85
2022/01/10 11:27:46;;;;;;;19.88;14.45;;;;;;;9.49;78.89;98278.44;5031994;28;20108;-85
2022/01/10 11:30:18;;;;;;;18.25;13.70;;;;;;;9.49;78.56;98275.81;5012792;28;20024;-83
2022/01/10 11:32:56;;;;;;;15.15;12.23;;;;;;;9.52;78.91;98280.66;5010221;28;20513;-85
2022/01/10 11:35:25;;;;;;;15.57;11.77;;;;;;;8.33;78.25;98091.94;5004019;28;20168;-84
2022/01/10 11:37:50;;;;;;;18.85;16.02;;;;;;;9.33;78.89;98247.22;5009766;28;20040;-84